Time;durP1;ratioP1;P1;durP2;ratioP2;P2;SDS_P1;SDS_P2;PMS_P1;PMS_P2;Temp;Humidity;BMP_temperature;BMP_pressure;BME280_temperature;BME280_humidity;BME280_pressure;Samples;Min_cycle;Max_cycle;Signal;HPM_P1;HPM_P2
2021/05/29 00:01:36;;;;;;;21.80;15.95;;;;;;;15.82;84.26;98983.70;129959;1101;23655;-61
2021/05/29 00:04:05;;;;;;;20.45;15.38;;;;;;;15.82;84.25;98985.63;130008;1101;23251;-61
2021/05/29 00:06:33;;;;;;;18.03;14.75;;;;;;;15.80;84.17;98985.13;127366;1101;22756;-61
2021/05/29 00:09:04;;;;;;;25.33;15.17;;;;;;;15.77;84.31;98982.98;130004;1101;23054;-61
2021/05/29 00:11:52;;;;;;;20.65;14.98;;;;;;;15.75;84.70;98985.20;129935;1101;22853;-61
2021/05/29 00:14:20;;;;;;;24.55;15.13;;;;;;;15.76;84.65;98979.41;129992;1101;22651;-61
2021/05/29 00:16:49;;;;;;;21.28;15.03;;;;;;;15.77;84.54;98975.55;129991;1101;22545;-61
2021/05/29 00:19:18;;;;;;;18.50;15.90;;;;;;;15.76;84.79;98971.17;129991;1101;23286;-61
2021/05/29 00:21:46;;;;;;;19.85;15.18;;;;;;;15.77;84.78;98963.75;129685;1101;22572;-61
2021/05/29 00:24:14;;;;;;;21.77;14.70;;;;;;;15.78;85.02;98965.38;129979;1101;22558;-61
2021/05/29 00:26:42;;;;;;;17.75;13.40;;;;;;;15.79;84.86;98959.58;129973;1101;22656;-61
2021/05/29 00:29:11;;;;;;;18.85;14.05;;;;;;;15.80;84.44;98958.47;130002;1101;22577;-61
2021/05/29 00:31:39;;;;;;;15.68;13.18;;;;;;;15.81;84.40;98957.34;129962;1101;22682;-61
2021/05/29 00:34:08;;;;;;;19.68;12.93;;;;;;;15.81;84.31;98953.78;129981;1101;22712;-61
2021/05/29 00:36:36;;;;;;;13.33;11.75;;;;;;;15.81;84.42;98954.60;129938;1101;23356;-61
2021/05/29 00:39:05;;;;;;;16.50;10.88;;;;;;;15.82;84.35;98956.23;129955;1101;22558;-61
2021/05/29 00:41:34;;;;;;;13.03;10.63;;;;;;;15.82;84.00;98958.16;129636;1101;22580;-61
2021/05/29 00:44:02;;;;;;;15.95;10.30;;;;;;;15.81;84.20;98957.34;129962;1101;23301;-62
2021/05/29 00:46:30;;;;;;;16.25;11.70;;;;;;;15.81;84.03;98954.60;129928;1101;22637;-61
2021/05/29 00:48:59;;;;;;;16.70;10.28;;;;;;;15.81;83.89;98951.04;129959;1101;22620;-61
2021/05/29 00:51:27;;;;;;;20.15;12.28;;;;;;;15.81;84.14;98959.28;129957;1101;22662;-61
2021/05/29 00:53:56;;;;;;;13.75;11.55;;;;;;;15.80;83.84;98950.22;129943;1101;22697;-62
2021/05/29 00:56:28;;;;;;;18.80;12.80;;;;;;;15.80;84.14;98950.22;130033;1101;23712;-61
2021/05/29 00:58:57;;;;;;;14.43;11.33;;;;;;;15.80;83.82;98952.97;129929;1101;23415;-61
2021/05/29 01:01:25;;;;;;;18.68;11.05;;;;;;;15.80;84.04;98950.22;130005;1101;22707;-61
2021/05/29 01:03:53;;;;;;;19.98;11.65;;;;;;;15.80;84.00;98950.22;129975;1101;22623;-61
2021/05/29 01:06:22;;;;;;;13.45;11.23;;;;;;;15.80;83.85;98943.91;129978;1101;22561;-63
2021/05/29 01:08:50;;;;;;;23.98;13.03;;;;;;;15.79;83.88;98940.35;129930;1101;22616;-63
2021/05/29 01:11:21;;;;;;;17.08;11.73;;;;;;;15.78;83.60;98938.72;130013;1101;23487;-63
2021/05/29 01:13:49;;;;;;;16.43;12.20;;;;;;;15.74;83.91;98939.63;129961;1101;22669;-63
2021/05/29 01:16:43;;;;;;;16.58;13.18;;;;;;;15.71;83.95;98934.78;129969;1101;22641;-63
2021/05/29 01:19:10;;;;;;;14.30;11.88;;;;;;;15.69;83.86;98937.83;129989;1101;23400;-62
2021/05/29 01:21:50;;;;;;;14.88;11.78;;;;;;;15.69;84.33;98926.84;129797;1101;22549;-62
2021/05/29 01:24:19;;;;;;;15.43;11.43;;;;;;;15.69;84.27;98921.34;129952;1101;22551;-62
2021/05/29 01:26:48;;;;;;;16.10;11.43;;;;;;;15.69;84.23;98924.09;129992;1101;22568;-62
2021/05/29 01:29:17;;;;;;;17.80;11.70;;;;;;;15.66;83.92;98915.64;129965;1101;23168;-62
2021/05/29 01:31:51;;;;;;;18.20;12.25;;;;;;;15.62;84.16;98917.37;129997;1101;22748;-62
2021/05/29 01:34:22;;;;;;;21.03;12.45;;;;;;;15.60;84.15;98917.67;129638;1103;22579;-62
2021/05/29 01:36:51;;;;;;;15.00;10.43;;;;;;;15.59;84.25;98924.28;126573;1102;23216;-60
2021/05/29 01:39:20;;;;;;;13.63;9.78;;;;;;;15.61;84.64;98929.47;129691;1101;23367;-60
2021/05/29 01:41:48;;;;;;;18.95;10.70;;;;;;;15.60;84.61;98928.66;129971;1101;23430;-60
2021/05/29 01:44:23;;;;;;;14.08;10.78;;;;;;;15.62;84.95;98923.67;129598;1104;22596;-60
2021/05/29 01:46:52;;;;;;;13.50;9.48;;;;;;;15.63;84.52;98927.23;129664;1104;22626;-60
2021/05/29 01:49:21;;;;;;;14.48;10.85;;;;;;;15.61;84.62;98927.53;129651;1104;23424;-60
2021/05/29 01:51:49;;;;;;;13.20;11.08;;;;;;;15.60;84.58;98927.84;129675;1104;22586;-60
2021/05/29 01:54:17;;;;;;;16.15;12.30;;;;;;;15.60;84.52;98936.08;130321;1098;22582;-60
2021/05/29 01:56:46;;;;;;;13.38;11.00;;;;;;;15.60;84.45;98931.40;130333;1098;22634;-60
2021/05/29 01:59:14;;;;;;;17.15;12.50;;;;;;;15.61;84.48;98932.22;130243;1098;22695;-60
2021/05/29 02:01:42;;;;;;;16.10;10.73;;;;;;;15.60;84.48;98928.66;130309;1098;23289;-60
2021/05/29 02:04:11;;;;;;;16.08;11.00;;;;;;;15.62;84.73;98925.61;130338;1098;22541;-60
2021/05/29 02:06:49;;;;;;;16.68;12.10;;;;;;;15.63;84.71;98919.81;130303;1098;22749;-63
2021/05/29 02:09:17;;;;;;;16.10;13.28;;;;;;;15.64;84.85;98924.19;130356;1098;22529;-62
2021/05/29 02:11:45;;;;;;;18.83;14.33;;;;;;;15.65;84.72;98922.25;130272;1098;22595;-62
2021/05/29 02:14:15;;;;;;;19.60;15.50;;;;;;;15.66;84.74;98929.38;129998;1100;22770;-63
2021/05/29 02:16:43;;;;;;;18.63;15.20;;;;;;;15.67;84.66;98934.56;130325;1098;22545;-62
2021/05/29 02:19:12;;;;;;;18.85;16.08;;;;;;;15.67;84.83;98925.52;130354;1098;22593;-62
2021/05/29 02:21:40;;;;;;;21.98;17.20;;;;;;;15.67;84.97;98915.34;130294;1098;22578;-62
2021/05/29 02:24:08;;;;;;;26.88;18.10;;;;;;;15.67;84.82;98912.59;130391;1098;22558;-62
2021/05/29 02:26:37;;;;;;;21.23;17.00;;;;;;;15.68;85.03;98905.98;130333;1098;22579;-62
2021/05/29 02:29:05;;;;;;;20.50;16.98;;;;;;;15.69;85.03;98906.80;130384;1098;22578;-62
2021/05/29 02:31:33;;;;;;;20.40;17.13;;;;;;;15.68;84.81;98908.73;130366;1098;22587;-62
2021/05/29 02:34:02;;;;;;;21.25;17.75;;;;;;;15.64;84.76;98902.22;130289;1098;22579;-63
2021/05/29 02:36:31;;;;;;;19.40;15.03;;;;;;;15.61;84.92;98907.50;130296;1098;22693;-63
2021/05/29 02:38:59;;;;;;;21.18;14.93;;;;;;;15.59;84.90;98905.06;130361;1098;22545;-63
2021/05/29 02:41:30;;;;;;;19.58;13.98;;;;;;;15.57;85.04;98909.25;130219;1098;22689;-60
2021/05/29 02:43:59;;;;;;;20.90;14.93;;;;;;;15.55;85.22;98909.55;130374;1098;24764;-60
2021/05/29 02:46:28;;;;;;;19.75;14.85;;;;;;;15.55;85.28;98915.05;130337;1098;22585;-60
2021/05/29 02:48:58;;;;;;;17.78;15.03;;;;;;;15.55;85.36;98918.61;130372;1098;22521;-60
2021/05/29 02:51:26;;;;;;;13.70;12.20;;;;;;;15.55;85.48;98913.12;130304;1098;22588;-60
2021/05/29 02:53:54;;;;;;;13.93;12.23;;;;;;;15.54;85.28;98905.97;130329;1098;22551;-60
2021/05/29 02:56:22;;;;;;;17.43;13.45;;;;;;;15.49;85.49;98906.05;130349;1098;22529;-60
2021/05/29 02:58:51;;;;;;;15.03;13.33;;;;;;;15.45;85.55;98909.70;130337;1098;22725;-60
2021/05/29 03:01:19;;;;;;;16.48;13.98;;;;;;;15.43;85.51;98903.73;130335;1098;23826;-60
2021/05/29 03:03:48;;;;;;;18.98;13.53;;;;;;;15.41;85.36;98909.52;130367;1098;22547;-60
2021/05/29 03:06:16;;;;;;;17.15;13.68;;;;;;;15.36;85.47;98903.31;130361;1098;23545;-60
2021/05/29 03:08:45;;;;;;;16.23;13.18;;;;;;;15.35;85.79;98896.19;130321;1098;22579;-60
2021/05/29 03:11:14;;;;;;;15.95;13.88;;;;;;;15.34;85.95;98905.53;130407;1098;22631;-60
2021/05/29 03:13:42;;;;;;;16.73;14.60;;;;;;;15.33;85.54;98903.91;130300;1098;22673;-60
2021/05/29 03:16:12;;;;;;;18.75;14.85;;;;;;;15.28;85.84;98895.80;130382;1098;22591;-60
2021/05/29 03:18:41;;;;;;;20.50;16.20;;;;;;;15.25;85.95;98901.88;130376;1098;23455;-60
2021/05/29 03:21:09;;;;;;;20.00;15.38;;;;;;;15.23;85.97;98904.11;130362;1098;22702;-60
2021/05/29 03:23:37;;;;;;;23.20;17.25;;;;;;;15.20;86.09;98892.63;130313;1098;22541;-60
2021/05/29 03:26:06;;;;;;;24.13;17.90;;;;;;;15.14;86.05;98909.50;130407;1098;22562;-60
2021/05/29 03:28:36;;;;;;;18.98;15.95;;;;;;;15.10;86.43;98900.23;130374;1098;22670;-60
2021/05/29 03:31:04;;;;;;;28.55;16.83;;;;;;;15.08;86.51;98900.54;130369;1098;22537;-60
2021/05/29 03:33:33;;;;;;;23.50;16.70;;;;;;;15.09;86.70;98909.59;130326;1098;22858;-60
2021/05/29 03:36:01;;;;;;;27.05;18.03;;;;;;;15.10;86.92;98912.03;130392;1098;22562;-60
2021/05/29 03:38:48;;;;;;;28.00;18.35;;;;;;;15.10;87.12;98912.03;130336;1098;23146;-61
2021/05/29 03:41:16;;;;;;;25.60;17.58;;;;;;;15.10;87.06;98914.77;130394;1098;23332;-60
2021/05/29 03:43:44;;;;;;;23.48;17.95;;;;;;;15.11;86.90;98910.10;130324;1098;22545;-60
2021/05/29 03:46:13;;;;;;;28.88;18.05;;;;;;;15.09;87.18;98921.38;130371;1098;22588;-60
2021/05/29 03:48:42;;;;;;;24.63;17.50;;;;;;;15.04;87.28;98910.48;130313;1098;22637;-60
2021/05/29 03:51:10;;;;;;;23.13;16.03;;;;;;;15.02;87.15;98918.20;130366;1098;22642;-60
2021/05/29 03:53:39;;;;;;;20.98;17.33;;;;;;;15.00;87.22;98914.16;130345;1098;22621;-60
2021/05/29 03:56:07;;;;;;;19.83;14.85;;;;;;;15.01;87.42;98915.75;130365;1098;23411;-61
2021/05/29 03:58:36;;;;;;;13.58;11.43;;;;;;;14.98;87.65;98913.64;130388;1098;22595;-60
2021/05/29 04:01:04;;;;;;;14.70;12.70;;;;;;;14.94;87.72;98926.31;130318;1098;22562;-60
2021/05/29 04:03:32;;;;;;;14.25;11.85;;;;;;;14.92;87.77;98920.31;130399;1098;23447;-60
2021/05/29 04:06:01;;;;;;;14.50;10.73;;;;;;;14.94;87.90;98929.06;130312;1098;22540;-60
2021/05/29 04:08:29;;;;;;;14.88;10.15;;;;;;;14.96;87.71;98926.83;130339;1098;22523;-60
2021/05/29 04:10:57;;;;;;;12.28;9.55;;;;;;;14.96;88.10;98930.39;130309;1098;22667;-60
2021/05/29 04:13:26;;;;;;;11.30;8.75;;;;;;;14.95;87.84;98925.20;130366;1098;22638;-60
2021/05/29 04:15:54;;;;;;;12.40;9.35;;;;;;;14.97;88.00;98929.28;130294;1098;22797;-60
2021/05/29 04:18:23;;;;;;;13.45;8.63;;;;;;;14.98;88.00;98924.61;130385;1098;23321;-60
2021/05/29 04:20:54;;;;;;;10.18;7.53;;;;;;;15.01;88.16;98924.80;130381;1098;23261;-60
2021/05/29 04:23:23;;;;;;;10.78;6.75;;;;;;;14.98;88.15;98925.42;130390;1098;22556;-60
2021/05/29 04:25:51;;;;;;;7.68;6.93;;;;;;;14.94;87.52;98926.31;130347;1098;22535;-60
2021/05/29 04:28:19;;;;;;;8.25;6.03;;;;;;;14.87;87.57;98934.92;130366;1098;22763;-61
2021/05/29 04:30:48;;;;;;;7.85;4.85;;;;;;;14.79;86.61;98936.44;130366;1098;22560;-60
2021/05/29 04:33:17;;;;;;;9.60;4.48;;;;;;;14.73;86.63;98931.32;130368;1098;22535;-60
2021/05/29 04:35:46;;;;;;;7.13;3.93;;;;;;;14.68;86.62;98931.42;130343;1098;22568;-61
2021/05/29 04:38:14;;;;;;;4.85;3.38;;;;;;;14.64;86.25;98938.61;130374;1098;23444;-60
2021/05/29 04:40:43;;;;;;;6.85;4.00;;;;;;;14.63;86.10;98945.20;130273;1098;22574;-61
2021/05/29 04:43:11;;;;;;;5.30;3.48;;;;;;;14.62;86.48;98941.65;130340;1098;23080;-60
2021/05/29 04:45:41;;;;;;;6.80;4.10;;;;;;;14.61;85.92;98940.02;130322;1098;22526;-61
2021/05/29 04:48:11;;;;;;;6.38;3.68;;;;;;;14.59;86.04;98941.42;130386;1098;22656;-61
2021/05/29 04:53:26;;;;;;;6.63;4.28;;;;;;;14.51;85.96;98942.92;130381;1098;22536;-61
2021/05/29 04:55:55;;;;;;;7.50;4.60;;;;;;;14.46;85.65;98954.77;130358;1098;22568;-60
2021/05/29 04:58:23;;;;;;;6.30;4.43;;;;;;;14.43;86.00;98958.10;130375;1098;23146;-60
2021/05/29 05:00:52;;;;;;;6.60;4.38;;;;;;;14.42;85.59;98961.16;130383;1098;22553;-60
2021/05/29 05:03:20;;;;;;;7.63;3.38;;;;;;;14.38;85.52;98958.16;130346;1098;23642;-60
2021/05/29 05:05:49;;;;;;;5.83;3.48;;;;;;;14.35;85.07;98952.45;130386;1098;22673;-60
2021/05/29 05:08:17;;;;;;;6.00;3.68;;;;;;;14.32;85.25;98964.81;130325;1098;22615;-60
2021/05/29 05:10:46;;;;;;;4.88;3.30;;;;;;;14.29;85.27;98964.59;130375;1098;22546;-61
2021/05/29 05:13:14;;;;;;;6.85;3.33;;;;;;;14.27;85.47;98967.66;130281;1098;22523;-60
2021/05/29 05:15:44;;;;;;;6.63;3.03;;;;;;;14.26;85.06;98959.72;130377;1098;22539;-60
2021/05/29 05:18:13;;;;;;;3.60;2.43;;;;;;;14.25;85.43;98964.39;130343;1098;22548;-61
2021/05/29 05:20:42;;;;;;;6.78;3.40;;;;;;;14.23;85.21;98958.38;130398;1098;22658;-60
2021/05/29 05:23:10;;;;;;;6.70;2.98;;;;;;;14.27;85.30;98964.09;130334;1098;22578;-61
2021/05/29 05:25:39;;;;;;;3.90;2.78;;;;;;;14.29;85.06;98968.14;130422;1098;22620;-60
2021/05/29 05:28:07;;;;;;;5.50;3.38;;;;;;;14.30;84.89;98967.03;130347;1098;23363;-60
2021/05/29 05:30:35;;;;;;;6.68;3.23;;;;;;;14.30;85.40;98967.03;130352;1098;23296;-60
2021/05/29 05:33:05;;;;;;;3.68;2.45;;;;;;;14.29;84.97;98970.88;130347;1098;22581;-60
2021/05/29 05:35:34;;;;;;;4.78;2.48;;;;;;;14.27;85.09;98962.17;130382;1098;22542;-60
2021/05/29 05:38:02;;;;;;;4.78;2.55;;;;;;;14.25;84.58;98972.61;130327;1098;22531;-60
2021/05/29 05:40:31;;;;;;;3.68;2.33;;;;;;;14.24;84.83;98979.20;130400;1098;22510;-60
2021/05/29 05:42:59;;;;;;;4.95;2.25;;;;;;;14.22;84.55;98975.11;130328;1098;22535;-60
2021/05/29 05:45:28;;;;;;;15.28;7.40;;;;;;;14.21;84.59;98970.74;130311;1098;22637;-61
2021/05/29 05:47:56;;;;;;;6.98;3.28;;;;;;;14.21;84.54;98966.08;130324;1098;22589;-60
2021/05/29 05:50:25;;;;;;;17.18;4.85;;;;;;;14.24;84.51;98972.90;130384;1098;22541;-61
2021/05/29 05:52:53;;;;;;;3.80;2.05;;;;;;;14.26;84.56;98982.46;130377;1098;22590;-60
2021/05/29 05:55:24;;;;;;;2.93;2.15;;;;;;;14.29;84.44;98991.98;129879;1098;22531;-60
2021/05/29 05:57:57;;;;;;;3.00;1.95;;;;;;;14.32;83.97;98986.74;130405;1098;23392;-60
2021/05/29 06:00:25;;;;;;;5.60;1.63;;;;;;;14.33;83.81;98987.56;130323;1098;23737;-60
2021/05/29 06:02:53;;;;;;;2.40;1.75;;;;;;;14.33;84.06;98993.86;130390;1098;22563;-61
2021/05/29 06:05:22;;;;;;;3.63;1.85;;;;;;;14.34;83.39;98991.93;130322;1098;22509;-60
2021/05/29 06:07:51;;;;;;;3.08;1.95;;;;;;;14.35;82.92;98990.82;130344;1098;23299;-61
2021/05/29 06:10:19;;;;;;;3.83;1.93;;;;;;;14.36;82.95;98998.75;130341;1098;22585;-60
2021/05/29 06:12:50;;;;;;;2.08;1.93;;;;;;;14.39;83.27;98987.20;130400;1098;22627;-60
2021/05/29 06:20:50;;;;;;;2.88;1.88;;;;;;;14.56;82.67;98996.88;130338;1098;22554;-59
2021/05/29 06:23:18;;;;;;;3.88;1.55;;;;;;;14.61;82.42;99007.74;130358;1097;22510;-60
2021/05/29 06:25:46;;;;;;;2.05;1.68;;;;;;;14.66;82.25;99007.67;130347;1098;23067;-60
2021/05/29 06:28:15;;;;;;;5.08;1.70;;;;;;;14.68;82.19;99006.27;130392;1098;22557;-59
2021/05/29 06:30:43;;;;;;;2.15;1.70;;;;;;;14.71;81.80;99005.69;130351;1098;22660;-59
2021/05/29 06:33:11;;;;;;;2.00;1.80;;;;;;;14.74;81.23;99004.25;130383;1098;23347;-60
2021/05/29 06:35:40;;;;;;;2.08;1.60;;;;;;;14.74;81.10;98998.77;130301;1098;22547;-60
2021/05/29 06:38:08;;;;;;;2.25;1.75;;;;;;;14.75;80.90;99005.88;130409;1098;22579;-60
2021/05/29 06:40:36;;;;;;;3.18;1.53;;;;;;;14.74;81.02;99010.55;130348;1098;22537;-60
2021/05/29 06:43:05;;;;;;;4.33;1.88;;;;;;;14.77;81.10;99006.41;130399;1098;23239;-60
2021/05/29 06:45:33;;;;;;;2.33;1.53;;;;;;;14.79;80.88;99009.66;130362;1098;22598;-60
2021/05/29 06:48:03;;;;;;;1.70;1.60;;;;;;;14.80;80.72;99020.34;130272;1098;22772;-60
2021/05/29 06:50:31;;;;;;;6.43;2.18;;;;;;;14.81;80.38;99008.27;130349;1098;22582;-61
2021/05/29 06:53:01;;;;;;;6.08;3.00;;;;;;;14.88;80.81;99013.34;130374;1098;23391;-60
2021/05/29 07:01:05;;;;;;;5.38;2.10;;;;;;;15.00;80.14;99013.73;130348;1098;22690;-59
2021/05/29 07:03:33;;;;;;;2.00;1.75;;;;;;;15.08;80.15;99018.52;130357;1098;22585;-60
2021/05/29 07:06:02;;;;;;;2.55;1.90;;;;;;;15.10;79.45;99015.48;130325;1098;22576;-59
2021/05/29 07:08:30;;;;;;;2.35;1.78;;;;;;;15.12;79.70;99022.30;130370;1098;23032;-59
2021/05/29 07:10:58;;;;;;;2.18;1.55;;;;;;;15.18;79.96;99025.76;130369;1098;22543;-59
2021/05/29 07:13:30;;;;;;;2.20;1.50;;;;;;;15.27;79.62;99020.41;130349;1098;22535;-59
2021/05/29 07:15:59;;;;;;;2.05;1.50;;;;;;;15.31;79.47;99027.73;130369;1098;22556;-59
2021/05/29 07:18:33;;;;;;;2.85;1.28;;;;;;;15.34;78.79;99029.88;130350;1098;22541;-60
2021/05/29 07:21:02;;;;;;;3.50;1.48;;;;;;;15.34;78.73;99029.06;130308;1098;24217;-59
2021/05/29 07:23:30;;;;;;;2.35;1.58;;;;;;;15.33;77.98;99024.69;130364;1098;23653;-59
2021/05/29 07:25:59;;;;;;;3.03;1.65;;;;;;;15.32;78.19;99028.54;130343;1098;22515;-59
2021/05/29 07:28:27;;;;;;;2.10;1.55;;;;;;;15.30;77.74;99030.77;130347;1098;22523;-60
2021/05/29 07:30:56;;;;;;;4.88;1.58;;;;;;;15.25;77.42;99031.69;130402;1098;22572;-60
2021/05/29 07:33:25;;;;;;;4.00;1.60;;;;;;;15.24;77.90;99029.24;130311;1098;22511;-59
2021/05/29 07:35:53;;;;;;;3.85;2.05;;;;;;;15.18;77.80;99037.55;130376;1098;23202;-63
2021/05/29 07:38:22;;;;;;;2.75;1.90;;;;;;;15.18;78.50;99031.25;130335;1098;22584;-63
2021/05/29 07:40:50;;;;;;;3.10;1.78;;;;;;;15.19;78.58;99032.88;130366;1098;22524;-62
2021/05/29 07:43:19;;;;;;;7.60;2.30;;;;;;;15.23;78.55;99031.17;130323;1098;22514;-62
2021/05/29 07:46:01;;;;;;;5.05;2.15;;;;;;;15.25;78.39;99031.69;130373;1098;22652;-63
2021/05/29 07:48:30;;;;;;;2.75;1.80;;;;;;;15.29;78.08;99031.91;130380;1098;22633;-62
2021/05/29 07:51:02;;;;;;;2.85;2.05;;;;;;;15.30;77.86;99037.07;130360;1098;22530;-62
2021/05/29 07:53:35;;;;;;;1.88;1.65;;;;;;;15.34;78.52;99029.06;130335;1098;22685;-62
2021/05/29 07:56:10;;;;;;;2.93;2.00;;;;;;;15.43;77.89;99027.27;130399;1098;22602;-62
2021/05/29 07:58:41;;;;;;;2.83;1.80;;;;;;;15.47;77.39;99031.84;130328;1098;22523;-63
2021/05/29 08:01:10;;;;;;;2.65;1.98;;;;;;;15.54;77.12;99031.45;130370;1098;23110;-62
2021/05/29 08:03:39;;;;;;;2.78;1.80;;;;;;;15.59;77.08;99036.05;130350;1098;22693;-62
2021/05/29 08:06:15;;;;;;;7.63;2.00;;;;;;;15.66;76.21;99036.48;130384;1098;22621;-62
2021/05/29 08:08:45;;;;;;;2.33;1.90;;;;;;;15.70;76.25;99037.52;130378;1098;23249;-62
2021/05/29 08:11:21;;;;;;;2.43;1.95;;;;;;;15.76;76.21;99041.78;130379;1098;22728;-62
2021/05/29 08:13:53;;;;;;;5.30;2.15;;;;;;;15.81;76.56;99045.25;130341;1098;24202;-63
2021/05/29 08:16:22;;;;;;;4.05;1.95;;;;;;;15.85;75.83;99045.47;130337;1098;22707;-62
2021/05/29 08:18:53;;;;;;;2.70;1.98;;;;;;;15.86;74.73;99052.59;130320;1098;22535;-62
2021/05/29 08:21:22;;;;;;;7.00;2.33;;;;;;;15.85;74.52;99054.52;130408;1098;23607;-62
2021/05/29 08:23:51;;;;;;;4.50;2.53;;;;;;;15.84;74.53;99050.14;130380;1098;22628;-62
2021/05/29 08:26:19;;;;;;;4.95;2.28;;;;;;;15.86;75.10;99045.17;130359;1098;22528;-62
2021/05/29 08:28:50;;;;;;;5.93;2.23;;;;;;;15.87;74.56;99044.02;130385;1098;22658;-62
2021/05/29 08:31:21;;;;;;;4.90;2.43;;;;;;;15.84;74.79;99052.89;130305;1098;23254;-63
2021/05/29 08:33:49;;;;;;;2.73;1.88;;;;;;;15.83;74.61;99044.95;130390;1098;22665;-63
2021/05/29 08:36:18;;;;;;;3.68;2.60;;;;;;;15.84;73.83;99038.34;130329;1098;22540;-60
2021/05/29 08:38:48;;;;;;;4.18;1.88;;;;;;;15.89;74.12;99050.03;130335;1098;22690;-60
2021/05/29 08:41:16;;;;;;;2.93;2.03;;;;;;;15.97;74.37;99051.27;130314;1097;23253;-60
2021/05/29 08:43:45;;;;;;;2.55;2.28;;;;;;;16.02;73.60;99050.33;130382;1098;22603;-61
2021/05/29 08:46:13;;;;;;;3.18;2.28;;;;;;;16.06;73.95;99048.61;130348;1098;22596;-61
2021/05/29 08:48:44;;;;;;;4.70;2.05;;;;;;;16.12;73.90;99050.15;130341;1098;22549;-60
2021/05/29 08:51:13;;;;;;;3.73;2.20;;;;;;;16.18;73.03;99044.23;130332;1098;23357;-61
2021/05/29 08:53:46;;;;;;;4.80;2.20;;;;;;;16.24;72.84;99047.70;130356;1098;22530;-61
2021/05/29 08:56:16;;;;;;;5.20;2.33;;;;;;;16.25;72.73;99049.33;130268;1098;23159;-61
2021/05/29 08:58:44;;;;;;;2.98;2.40;;;;;;;16.26;72.51;99059.20;130362;1098;22528;-61
2021/05/29 09:01:13;;;;;;;4.58;2.20;;;;;;;16.26;72.14;99061.95;130338;1098;23435;-61
2021/05/29 09:03:44;;;;;;;2.50;2.23;;;;;;;16.28;71.58;99054.22;130367;1098;22539;-61
2021/05/29 09:06:15;;;;;;;2.85;2.25;;;;;;;16.32;72.21;99048.89;130329;1098;22642;-63
2021/05/29 09:08:54;;;;;;;3.43;2.08;;;;;;;16.37;71.93;99055.11;130369;1098;22602;-63
2021/05/29 09:11:41;;;;;;;8.30;2.28;;;;;;;16.42;71.60;99056.95;130308;1098;22573;-63
2021/05/29 09:14:29;;;;;;;3.73;2.40;;;;;;;16.46;70.61;99056.01;130390;1098;22479;-64
2021/05/29 09:17:05;;;;;;;5.23;2.30;;;;;;;16.43;71.31;99053.89;130303;1098;22594;-64
2021/05/29 09:19:55;;;;;;;4.30;2.90;;;;;;;16.38;71.83;99055.93;130354;1098;22593;-64
2021/05/29 09:22:36;;;;;;;4.75;2.43;;;;;;;16.35;71.33;99060.09;130315;1098;23083;-64
2021/05/29 09:25:12;;;;;;;3.95;2.70;;;;;;;16.33;71.43;99067.84;130402;1098;22586;-64
2021/05/29 09:30:44;;;;;;;4.50;2.57;;;;;;;16.31;71.10;99064.58;125724;1090;22966;-63
2021/05/29 09:33:36;;;;;;;2.90;2.60;;;;;;;16.32;71.29;99060.70;129996;1101;22693;-64
2021/05/29 09:36:13;;;;;;;4.87;3.13;;;;;;;16.36;71.38;99058.98;130013;1101;22536;-64
2021/05/29 09:38:48;;;;;;;5.38;3.00;;;;;;;16.44;71.13;99051.97;129924;1101;22598;-64
2021/05/29 09:41:36;;;;;;;3.15;2.28;;;;;;;16.51;71.47;99063.34;130008;1101;22598;-60
2021/05/29 09:44:05;;;;;;;2.78;2.33;;;;;;;16.57;71.27;99062.94;129943;1101;22529;-61
2021/05/29 09:46:51;;;;;;;4.45;3.10;;;;;;;16.58;70.71;99064.56;130049;1101;22534;-61
2021/05/29 09:49:19;;;;;;;4.20;2.78;;;;;;;16.52;70.40;99068.54;129928;1101;23152;-61
2021/05/29 09:51:49;;;;;;;4.60;2.98;;;;;;;16.46;70.48;99063.44;129982;1101;22528;-61
2021/05/29 09:54:17;;;;;;;7.70;2.55;;;;;;;16.47;71.36;99065.89;129713;1101;23516;-61
2021/05/29 09:56:45;;;;;;;5.10;2.75;;;;;;;16.55;70.56;99070.68;130011;1101;22606;-61
2021/05/29 09:59:20;;;;;;;5.68;2.48;;;;;;;16.62;70.45;99070.24;129946;1101;22595;-61
2021/05/29 10:01:53;;;;;;;4.40;2.45;;;;;;;16.68;70.55;99068.23;130019;1101;23648;-61
2021/05/29 10:04:22;;;;;;;3.78;2.65;;;;;;;16.77;70.77;99067.19;129978;1101;23500;-61
2021/05/29 10:06:57;;;;;;;7.05;3.55;;;;;;;16.87;70.09;99074.41;129760;1102;22649;-61
2021/05/29 10:09:26;;;;;;;3.75;2.30;;;;;;;16.95;69.62;99081.92;129942;1101;22558;-61
2021/05/29 10:11:55;;;;;;;3.48;2.60;;;;;;;17.02;68.25;99076.81;129984;1101;23390;-61
2021/05/29 10:14:24;;;;;;;3.05;2.63;;;;;;;17.03;67.77;99088.61;129946;1101;22567;-61
2021/05/29 10:16:53;;;;;;;3.83;2.33;;;;;;;17.06;68.17;99080.55;130047;1101;22509;-60
2021/05/29 10:19:22;;;;;;;5.48;2.93;;;;;;;17.11;67.23;99083.19;129788;1101;22536;-60
2021/05/29 10:21:51;;;;;;;6.45;2.23;;;;;;;17.13;67.63;99083.70;129989;1101;22610;-60
2021/05/29 10:24:20;;;;;;;8.85;7.28;;;;;;;17.13;67.15;99083.70;129974;1101;23174;-60
2021/05/29 10:26:50;;;;;;;6.70;4.58;;;;;;;17.15;67.15;99088.90;129990;1101;22586;-60
2021/05/29 10:29:23;;;;;;;7.40;2.80;;;;;;;17.15;67.59;99089.71;129695;1101;22589;-60
2021/05/29 10:32:27;;;;;;;4.88;2.80;;;;;;;17.16;68.16;99077.58;130018;1101;23120;-60
2021/05/29 10:35:00;;;;;;;4.93;2.08;;;;;;;17.20;66.84;99086.81;129769;1101;22641;-60
2021/05/29 10:37:33;;;;;;;2.75;2.50;;;;;;;17.25;66.26;99085.89;129747;1101;22542;-60
2021/05/29 10:40:20;;;;;;;4.05;2.10;;;;;;;17.27;66.58;99092.72;129656;1102;22514;-60
2021/05/29 10:43:08;;;;;;;3.93;2.57;;;;;;;17.30;66.27;99083.84;130024;1101;23635;-60
2021/05/29 10:45:40;;;;;;;2.63;2.30;;;;;;;17.33;66.38;99079.63;129963;1101;22687;-62
2021/05/29 10:48:13;;;;;;;4.30;2.78;;;;;;;17.38;65.40;99084.20;129744;1102;23362;-62
2021/05/29 10:50:58;;;;;;;7.25;3.38;;;;;;;17.40;65.72;99085.52;129950;1101;22775;-62
2021/05/29 10:53:39;;;;;;;2.65;2.30;;;;;;;17.44;65.90;99075.51;130025;1101;22715;-62
2021/05/29 10:56:20;;;;;;;4.95;2.53;;;;;;;17.49;65.66;99082.81;129961;1101;22532;-62
2021/05/29 10:58:54;;;;;;;4.45;2.58;;;;;;;17.52;65.67;99087.70;129989;1101;22622;-62
2021/05/29 11:01:49;;;;;;;3.20;2.90;;;;;;;17.54;65.05;99085.45;129933;1101;22524;-62
2021/05/29 11:04:19;;;;;;;4.10;2.85;;;;;;;17.50;64.40;99073.42;130033;1101;23306;-62
2021/05/29 11:06:48;;;;;;;2.93;2.63;;;;;;;17.46;65.53;99077.92;129954;1101;22711;-62
2021/05/29 11:09:18;;;;;;;5.60;2.30;;;;;;;17.49;65.95;99072.61;129938;1101;23147;-62
2021/05/29 11:14:36;;;;;;;6.80;2.50;;;;;;;17.53;64.85;99075.55;130028;1101;23338;-64
2021/05/29 11:17:08;;;;;;;5.13;2.50;;;;;;;17.52;64.83;99060.97;129951;1101;23412;-63
2021/05/29 11:19:39;;;;;;;3.23;2.03;;;;;;;17.55;64.78;99070.55;129973;1101;23298;-63
2021/05/29 11:22:18;;;;;;;2.98;2.33;;;;;;;17.57;64.62;99071.05;129949;1101;22767;-62
2021/05/29 11:24:49;;;;;;;3.55;2.40;;;;;;;17.59;65.28;99071.55;130003;1101;22588;-62
2021/05/29 11:27:28;;;;;;;7.00;2.95;;;;;;;17.61;65.33;99077.53;129914;1101;22548;-62
2021/05/29 11:30:01;;;;;;;3.20;2.58;;;;;;;17.60;64.88;99071.20;129957;1101;22577;-62
2021/05/29 11:32:54;;;;;;;7.95;3.18;;;;;;;17.58;65.61;99069.92;129983;1101;22562;-62
2021/05/29 11:35:36;;;;;;;11.95;4.40;;;;;;;17.56;65.04;99072.98;129724;1101;22698;-62
2021/05/29 11:40:46;;;;;;;3.78;2.55;;;;;;;17.49;64.97;99083.63;130024;1101;23216;-62
2021/05/29 11:43:36;;;;;;;4.95;2.43;;;;;;;17.46;64.41;99077.92;129992;1101;23394;-63
2021/05/29 11:46:08;;;;;;;7.53;3.05;;;;;;;17.42;64.23;99080.52;129982;1101;23215;-62
2021/05/29 11:48:44;;;;;;;7.68;2.95;;;;;;;17.41;64.48;99075.31;129911;1101;22691;-63
2021/05/29 11:51:14;;;;;;;6.47;2.40;;;;;;;17.42;65.13;99082.45;129991;1101;22575;-62
2021/05/29 11:53:55;;;;;;;3.53;2.25;;;;;;;17.47;64.91;99083.13;129986;1101;22543;-63
2021/05/29 11:56:33;;;;;;;5.30;2.55;;;;;;;17.52;64.24;99068.41;127642;1095;26322;-60
2021/05/29 11:59:04;;;;;;;3.83;3.03;;;;;;;17.57;64.12;99071.86;129941;1101;22624;-61